Time;durP1;ratioP1;P1;durP2;ratioP2;P2;SDS_P1;SDS_P2;PMS_P1;PMS_P2;Temp;Humidity;BMP_temperature;BMP_pressure;BME280_temperature;BME280_humidity;BME280_pressure;Samples;Min_cycle;Max_cycle;Signal;HPM_P1;HPM_P2
2021/04/27 00:03:27;;;;;;;7.40;2.90;;;;;;;;;;10481073;28;20247;-71
2021/04/27 00:08:30;;;;;;;8.17;3.07;;;;;;;;;;10484549;28;20218;-69
2021/04/27 00:13:31;;;;;;;6.67;2.90;;;;;;;;;;10478719;28;20212;-70
2021/04/27 00:18:33;;;;;;;8.20;3.10;;;;;;;;;;10485398;28;20237;-71
2021/04/27 00:23:36;;;;;;;7.37;2.80;;;;;;;;;;10483576;28;20220;-72
2021/04/27 00:28:38;;;;;;;5.33;2.80;;;;;;;;;;10486086;28;20189;-70
2021/04/27 00:33:39;;;;;;;8.53;2.93;;;;;;;;;;10485574;28;20715;-71
2021/04/27 00:38:42;;;;;;;5.93;2.90;;;;;;;;;;10472044;28;20646;-70
2021/04/27 00:43:44;;;;;;;6.57;2.90;;;;;;;;;;10486112;28;20216;-71
2021/04/27 00:48:45;;;;;;;8.93;3.07;;;;;;;;;;10488667;28;20195;-71
2021/04/27 00:53:49;;;;;;;7.70;3.20;;;;;;;;;;10492551;28;20212;-70
2021/04/27 00:58:51;;;;;;;7.77;3.20;;;;;;;;;;10491531;28;20198;-70
2021/04/27 01:03:53;;;;;;;7.47;3.17;;;;;;;;;;10491281;28;20292;-72
2021/04/27 01:08:58;;;;;;;6.73;3.30;;;;;;;;;;10490804;28;20238;-71
2021/04/27 01:14:03;;;;;;;6.77;3.23;;;;;;;;;;10479499;28;20220;-69
2021/04/27 01:19:07;;;;;;;8.17;3.83;;;;;;;;;;10487725;28;20189;-71
2021/04/27 01:24:16;;;;;;;9.90;3.80;;;;;;;;;;10517461;28;20205;-72
2021/04/27 01:29:21;;;;;;;7.17;3.33;;;;;;;;;;10488365;28;20506;-71
2021/04/27 01:34:25;;;;;;;7.60;3.47;;;;;;;;;;10489169;28;20258;-70
2021/04/27 01:39:28;;;;;;;6.97;3.50;;;;;;;;;;10480327;28;20266;-73
2021/04/27 01:44:31;;;;;;;9.90;3.93;;;;;;;;;;10490182;28;20251;-70
2021/04/27 01:49:32;;;;;;;8.23;4.03;;;;;;;;;;10485426;28;20619;-71
2021/04/27 01:54:34;;;;;;;8.43;4.03;;;;;;;;;;10490843;28;20587;-71
2021/04/27 01:59:36;;;;;;;10.93;4.70;;;;;;;;;;10482870;28;20305;-72
2021/04/27 02:04:38;;;;;;;11.17;4.70;;;;;;;;;;10489158;28;20213;-71
2021/04/27 02:09:40;;;;;;;10.30;4.70;;;;;;;;;;10487012;28;20609;-71
2021/04/27 02:14:42;;;;;;;9.00;4.37;;;;;;;;;;10486960;28;20212;-70
2021/04/27 02:19:44;;;;;;;10.33;4.80;;;;;;;;;;10486679;28;20275;-70
2021/04/27 02:24:46;;;;;;;9.73;4.70;;;;;;;;;;10488269;28;20203;-72
2021/04/27 02:29:49;;;;;;;9.20;4.60;;;;;;;;;;10489210;28;20281;-71
2021/04/27 02:34:50;;;;;;;9.13;4.93;;;;;;;;;;10488384;28;20232;-71
2021/04/27 02:39:52;;;;;;;12.17;5.10;;;;;;;;;;10488454;28;20583;-72
2021/04/27 02:44:55;;;;;;;9.87;4.90;;;;;;;;;;10513188;28;20212;-72
2021/04/27 02:49:56;;;;;;;9.27;5.13;;;;;;;;;;10484459;28;20648;-70
2021/04/27 02:54:58;;;;;;;9.17;5.13;;;;;;;;;;10478811;28;20295;-71
2021/04/27 03:00:00;;;;;;;10.47;5.27;;;;;;;;;;10486987;28;20621;-71
2021/04/27 03:05:02;;;;;;;12.13;5.20;;;;;;;;;;10480881;28;20246;-70
2021/04/27 03:10:04;;;;;;;11.63;5.70;;;;;;;;;;10483148;28;20265;-70
2021/04/27 03:15:08;;;;;;;8.93;5.20;;;;;;;;;;10484727;28;20294;-71
2021/04/27 03:20:10;;;;;;;11.60;5.20;;;;;;;;;;10479427;28;20220;-71
2021/04/27 03:25:13;;;;;;;9.53;4.83;;;;;;;;;;10487541;28;20207;-71
2021/04/27 03:30:16;;;;;;;12.03;4.97;;;;;;;;;;10481656;28;20690;-71
2021/04/27 03:35:18;;;;;;;10.47;4.93;;;;;;;;;;10519996;28;20720;-71
2021/04/27 03:40:19;;;;;;;11.53;5.03;;;;;;;;;;10483313;28;20591;-71
2021/04/27 03:45:34;;;;;;;11.23;5.70;;;;;;;;;;10482789;28;20200;-71
2021/04/27 03:50:36;;;;;;;10.27;5.27;;;;;;;;;;10485267;28;20394;-71
2021/04/27 03:55:37;;;;;;;11.03;4.63;;;;;;;;;;10482799;28;20270;-70
2021/04/27 04:00:40;;;;;;;9.23;4.70;;;;;;;;;;10486232;28;20321;-71
2021/04/27 04:05:41;;;;;;;10.67;4.97;;;;;;;;;;10483694;28;20188;-71
2021/04/27 04:10:43;;;;;;;10.57;4.90;;;;;;;;;;10484608;28;20212;-72
2021/04/27 04:15:46;;;;;;;13.10;4.77;;;;;;;;;;10488126;28;20215;-71
2021/04/27 04:21:07;;;;;;;9.73;4.77;;;;;;;;;;10486522;28;20362;-70
2021/04/27 04:26:09;;;;;;;8.73;4.70;;;;;;;;;;10492217;28;20309;-71
2021/04/27 04:31:11;;;;;;;10.97;4.50;;;;;;;;;;10489960;28;20297;-72
2021/04/27 04:36:13;;;;;;;11.30;5.00;;;;;;;;;;10482669;28;20638;-69
2021/04/27 04:41:14;;;;;;;9.07;5.03;;;;;;;;;;10489957;28;20212;-72
2021/04/27 04:46:18;;;;;;;10.00;5.00;;;;;;;;;;10493404;28;20204;-70
2021/04/27 04:51:20;;;;;;;12.90;5.03;;;;;;;;;;10483107;28;20212;-70
2021/04/27 04:56:22;;;;;;;7.90;4.43;;;;;;;;;;10491772;28;20207;-70
2021/04/27 05:01:24;;;;;;;11.47;4.73;;;;;;;;;;10491165;28;20602;-73
2021/04/27 05:06:27;;;;;;;8.97;4.93;;;;;;;;;;10491584;28;20242;-71
2021/04/27 05:11:29;;;;;;;9.07;4.63;;;;;;;;;;10491237;28;20224;-70
2021/04/27 05:16:31;;;;;;;9.13;4.50;;;;;;;;;;10485208;28;20583;-71
2021/04/27 05:21:33;;;;;;;9.73;5.40;;;;;;;;;;10489396;28;20533;-71
2021/04/27 05:26:35;;;;;;;9.57;4.50;;;;;;;;;;10476866;28;20345;-68
2021/04/27 05:31:37;;;;;;;10.07;4.33;;;;;;;;;;10490857;28;20208;-71
2021/04/27 05:36:39;;;;;;;9.03;4.80;;;;;;;;;;10491347;28;20204;-70
2021/04/27 05:41:40;;;;;;;8.83;4.70;;;;;;;;;;10486963;28;20270;-70
2021/04/27 05:46:43;;;;;;;10.10;4.80;;;;;;;;;;10478732;28;20231;-68
2021/04/27 05:51:45;;;;;;;10.60;4.70;;;;;;;;;;10485203;28;20216;-69
2021/04/27 05:56:46;;;;;;;9.53;4.50;;;;;;;;;;10481782;28;20209;-70
2021/04/27 06:01:49;;;;;;;10.87;5.37;;;;;;;;;;10469415;28;20302;-71
2021/04/27 06:06:51;;;;;;;11.67;4.70;;;;;;;;;;10478589;28;20632;-71
2021/04/27 06:11:55;;;;;;;11.10;5.57;;;;;;;;;;10485408;28;20231;-70
2021/04/27 06:16:58;;;;;;;10.37;5.00;;;;;;;;;;10489620;28;20244;-70
2021/04/27 06:22:00;;;;;;;11.87;4.77;;;;;;;;;;10477203;28;20216;-69
2021/04/27 06:27:01;;;;;;;9.73;4.30;;;;;;;;;;10486397;28;20188;-69
2021/04/27 06:32:22;;;;;;;11.80;5.10;;;;;;;;;;10483454;28;20762;-71
2021/04/27 06:37:23;;;;;;;10.80;5.33;;;;;;;;;;10483616;28;20201;-70
2021/04/27 06:42:25;;;;;;;8.97;4.83;;;;;;;;;;10482627;28;20310;-71
2021/04/27 06:47:27;;;;;;;8.60;5.20;;;;;;;;;;10481189;28;20651;-70
2021/04/27 06:52:29;;;;;;;11.00;5.77;;;;;;;;;;10473058;28;20220;-70
2021/04/27 06:57:31;;;;;;;11.17;5.30;;;;;;;;;;10472337;28;20209;-71
2021/04/27 07:02:33;;;;;;;8.97;5.40;;;;;;;;;;10487136;28;20761;-69
2021/04/27 07:07:35;;;;;;;8.50;5.00;;;;;;;;;;10486165;28;20204;-71
2021/04/27 07:12:37;;;;;;;11.77;5.40;;;;;;;;;;10478279;28;20224;-71
2021/04/27 07:17:39;;;;;;;10.27;4.70;;;;;;;;;;10487712;28;20197;-70
2021/04/27 07:22:42;;;;;;;6.53;3.93;;;;;;;;;;10477285;28;20216;-70
2021/04/27 07:27:44;;;;;;;9.70;5.20;;;;;;;;;;10476438;28;20192;-69
2021/04/27 07:32:46;;;;;;;10.00;5.40;;;;;;;;;;10483206;28;20220;-72
2021/04/27 07:37:48;;;;;;;8.57;4.93;;;;;;;;;;10481207;28;20195;-69
2021/04/27 07:42:50;;;;;;;14.53;5.60;;;;;;;;;;10482501;28;20208;-71
2021/04/27 07:47:52;;;;;;;8.82;5.45;;;;;;;;;;10478714;28;20690;-72
2021/04/27 07:52:55;;;;;;;10.75;5.82;;;;;;;;;;10480542;28;20212;-70
2021/04/27 07:57:57;;;;;;;8.70;5.47;;;;;;;;;;10481561;28;20322;-72
2021/04/27 08:02:59;;;;;;;10.88;5.57;;;;;;;;;;10480781;28;20704;-72
2021/04/27 08:08:01;;;;;;;11.80;7.25;;;;;;;;;;10479708;28;20196;-72
2021/04/27 08:13:03;;;;;;;10.68;6.22;;;;;;;;;;10481528;28;20308;-70
2021/04/27 08:18:06;;;;;;;9.60;6.10;;;;;;;;;;10484938;28;20514;-71
2021/04/27 08:23:08;;;;;;;12.10;6.28;;;;;;;;;;10475438;28;20235;-69
2021/04/27 08:28:29;;;;;;;8.52;5.90;;;;;;;;;;10465113;28;21085;-71
2021/04/27 08:33:32;;;;;;;9.75;6.15;;;;;;;;;;10470031;28;20582;-71
2021/04/27 08:38:34;;;;;;;9.05;6.53;;;;;;;;;;10472989;28;20235;-72
2021/04/27 08:43:36;;;;;;;9.52;6.05;;;;;;;;;;10478719;28;20232;-69
2021/04/27 08:48:39;;;;;;;10.07;6.25;;;;;;;;;;10492629;28;20732;-72
2021/04/27 08:53:41;;;;;;;10.25;6.80;;;;;;;;;;10479989;28;20217;-72
2021/04/27 08:58:44;;;;;;;9.65;6.60;;;;;;;;;;10470582;28;20203;-72
2021/04/27 09:03:50;;;;;;;10.93;6.50;;;;;;;;;;10495712;28;20231;-71
2021/04/27 09:08:53;;;;;;;10.18;6.50;;;;;;;;;;10484772;28;20679;-72
2021/04/27 09:14:08;;;;;;;11.90;7.28;;;;;;;;;;10478993;28;20223;-72
2021/04/27 09:19:10;;;;;;;9.77;6.75;;;;;;;;;;10479959;28;20188;-72
2021/04/27 09:24:13;;;;;;;9.20;7.00;;;;;;;;;;10482560;28;20219;-71
2021/04/27 09:29:27;;;;;;;11.88;6.97;;;;;;;;;;10487353;28;20192;-72
2021/04/27 09:34:30;;;;;;;13.80;7.40;;;;;;;;;;10473887;28;20647;-72
2021/04/27 09:39:33;;;;;;;10.23;6.63;;;;;;;;;;10484253;28;20200;-73
2021/04/27 09:44:39;;;;;;;8.93;7.00;;;;;;;;;;10481757;28;20713;-71
2021/04/27 09:49:50;;;;;;;8.95;7.07;;;;;;;;;;10483606;28;20206;-71
2021/04/27 09:54:56;;;;;;;9.95;6.97;;;;;;;;;;10483016;28;20223;-70
2021/04/27 10:00:12;;;;;;;11.57;7.00;;;;;;;;;;10487183;28;20193;-73
2021/04/27 10:05:15;;;;;;;9.48;6.72;;;;;;;;;;10489771;28;20179;-72
2021/04/27 10:10:18;;;;;;;8.95;6.85;;;;;;;;;;10486212;28;20215;-72
2021/04/27 10:15:24;;;;;;;8.90;6.68;;;;;;;;;;10479608;28;20294;-72
2021/04/27 10:20:27;;;;;;;9.07;6.85;;;;;;;;;;10479175;28;20216;-72
2021/04/27 10:25:29;;;;;;;11.88;7.10;;;;;;;;;;10477159;28;20207;-72
2021/04/27 10:30:32;;;;;;;8.88;7.28;;;;;;;;;;10473508;28;20216;-72
2021/04/27 10:35:36;;;;;;;11.45;7.30;;;;;;;;;;10482216;28;20272;-72
2021/04/27 10:40:44;;;;;;;10.68;7.30;;;;;;;;;;10487570;28;20528;-71
2021/04/27 10:45:46;;;;;;;10.55;7.38;;;;;;;;;;10478822;28;20192;-72
2021/04/27 10:50:48;;;;;;;10.85;7.72;;;;;;;;;;10482276;28;20684;-72
2021/04/27 10:55:51;;;;;;;9.30;7.03;;;;;;;;;;10487468;28;20695;-72
2021/04/27 11:00:53;;;;;;;10.15;6.88;;;;;;;;;;10481882;28;20237;-72
2021/04/27 11:05:58;;;;;;;11.77;7.38;;;;;;;;;;10484376;28;20223;-71
2021/04/27 11:11:15;;;;;;;11.25;7.07;;;;;;;;;;10483142;28;20287;-72
2021/04/27 11:16:27;;;;;;;10.60;7.90;;;;;;;;;;10476628;28;20210;-70
2021/04/27 11:21:32;;;;;;;10.73;7.70;;;;;;;;;;10478609;28;20228;-72
2021/04/27 11:26:44;;;;;;;12.65;7.35;;;;;;;;;;10477930;28;20196;-71
2021/04/27 11:31:51;;;;;;;9.50;7.43;;;;;;;;;;10486416;28;20226;-72
2021/04/27 11:36:54;;;;;;;11.68;7.57;;;;;;;;;;10482573;28;20279;-72
2021/04/27 11:41:57;;;;;;;10.55;8.18;;;;;;;;;;10479370;28;20287;-71
2021/04/27 11:47:00;;;;;;;10.38;7.97;;;;;;;;;;10478894;28;20694;-71
2021/04/27 11:52:04;;;;;;;10.95;7.53;;;;;;;;;;10472553;28;20243;-72
2021/04/27 11:57:13;;;;;;;12.45;7.75;;;;;;;;;;10484480;28;20216;-71
2021/04/27 12:02:14;;;;;;;10.93;7.45;;;;;;;;;;10480530;28;20273;-72
2021/04/27 12:07:17;;;;;;;9.20;7.63;;;;;;;;;;10484011;28;20203;-71
2021/04/27 12:12:19;;;;;;;10.95;8.32;;;;;;;;;;10479128;28;20269;-71
2021/04/27 12:17:24;;;;;;;11.30;8.20;;;;;;;;;;10471701;28;20311;-72
2021/04/27 12:22:26;;;;;;;10.45;8.35;;;;;;;;;;10480875;28;20216;-72
2021/04/27 12:27:29;;;;;;;10.75;7.97;;;;;;;;;;10480241;28;20188;-71
2021/04/27 12:32:32;;;;;;;11.27;8.15;;;;;;;;;;10479823;28;20541;-72
2021/04/27 12:37:35;;;;;;;11.50;8.40;;;;;;;;;;10478323;28;20205;-71
2021/04/27 12:42:43;;;;;;;10.25;7.50;;;;;;;;;;10479934;28;20208;-72
2021/04/27 12:47:48;;;;;;;11.40;8.52;;;;;;;;;;10486945;28;20200;-70
2021/04/27 12:52:52;;;;;;;12.20;8.25;;;;;;;;;;10483485;28;20520;-70
2021/04/27 12:58:06;;;;;;;12.05;7.93;;;;;;;;;;10483006;28;20226;-70
2021/04/27 13:03:13;;;;;;;10.98;7.85;;;;;;;;;;10483592;28;20660;-72
2021/04/27 13:08:16;;;;;;;10.80;7.32;;;;;;;;;;10495136;28;20291;-72
2021/04/27 13:13:19;;;;;;;11.45;7.65;;;;;;;;;;10485471;28;20303;-71
2021/04/27 13:18:22;;;;;;;10.95;7.50;;;;;;;;;;10480935;28;20284;-71
2021/04/27 13:23:26;;;;;;;11.48;7.32;;;;;;;;;;10482534;28;20223;-72
2021/04/27 13:28:30;;;;;;;11.85;7.45;;;;;;;;;;10487891;28;20660;-69
2021/04/27 13:33:32;;;;;;;10.70;7.45;;;;;;;;;;10490400;28;20216;-70
2021/04/27 13:38:36;;;;;;;12.48;7.78;;;;;;;;;;10487378;28;20224;-71
2021/04/27 13:43:39;;;;;;;11.65;7.57;;;;;;;;;;10483598;28;20208;-70
2021/04/27 13:48:41;;;;;;;11.57;7.15;;;;;;;;;;10484169;28;20207;-72
2021/04/27 13:53:43;;;;;;;12.23;7.40;;;;;;;;;;10485703;28;20663;-71
2021/04/27 13:58:46;;;;;;;10.70;6.95;;;;;;;;;;10487515;28;20250;-72
2021/04/27 14:03:47;;;;;;;9.90;6.95;;;;;;;;;;10488321;28;20727;-72
2021/04/27 14:08:50;;;;;;;11.70;6.45;;;;;;;;;;10480534;28;20303;-72
2021/04/27 14:13:52;;;;;;;12.20;6.70;;;;;;;;;;10484949;28;20223;-71
2021/04/27 14:18:53;;;;;;;11.25;7.68;;;;;;;;;;10486602;28;20189;-72
2021/04/27 14:23:56;;;;;;;12.15;7.40;;;;;;;;;;10484521;28;20230;-71
2021/04/27 14:28:57;;;;;;;21.33;7.75;;;;;;;;;;10481222;28;20246;-70
2021/04/27 14:33:59;;;;;;;10.50;6.53;;;;;;;;;;10481205;28;20223;-71
2021/04/27 14:39:01;;;;;;;10.02;6.78;;;;;;;;;;10470302;28;20197;-71
2021/04/27 14:44:03;;;;;;;10.15;6.80;;;;;;;;;;10486301;28;20220;-72
2021/04/27 14:49:05;;;;;;;11.02;6.82;;;;;;;;;;10483086;28;20192;-72
2021/04/27 14:54:07;;;;;;;12.77;7.47;;;;;;;;;;10500678;28;20243;-71
2021/04/27 14:59:09;;;;;;;13.20;7.07;;;;;;;;;;10483074;28;20284;-70
2021/04/27 15:04:11;;;;;;;10.38;6.80;;;;;;;;;;10476100;28;20220;-71
2021/04/27 15:09:14;;;;;;;12.02;6.72;;;;;;;;;;10480801;28;20223;-71
2021/04/27 15:14:15;;;;;;;11.10;6.60;;;;;;;;;;10475233;28;20216;-71
2021/04/27 15:19:17;;;;;;;11.70;6.45;;;;;;;;;;10482894;28;20196;-71
2021/04/27 15:24:20;;;;;;;11.20;7.07;;;;;;;;;;10482372;28;20571;-70
2021/04/27 15:29:21;;;;;;;12.07;6.87;;;;;;;;;;10478256;28;20455;-72
2021/04/27 15:34:23;;;;;;;12.63;6.67;;;;;;;;;;10477978;28;20208;-71
2021/04/27 15:39:27;;;;;;;11.13;7.10;;;;;;;;;;10472818;28;20216;-69
2021/04/27 15:44:29;;;;;;;10.30;6.73;;;;;;;;;;10477080;28;20225;-70
2021/04/27 15:49:31;;;;;;;11.10;6.50;;;;;;;;;;10482457;28;20192;-70
2021/04/27 15:54:33;;;;;;;9.30;6.10;;;;;;;;;;10479388;28;20219;-71
2021/04/27 15:59:35;;;;;;;10.57;6.33;;;;;;;;;;10486548;28;20261;-70
2021/04/27 16:04:37;;;;;;;11.27;6.13;;;;;;;;;;10484493;28;20596;-71
2021/04/27 16:09:39;;;;;;;12.07;6.37;;;;;;;;;;10482865;28;20275;-72
2021/04/27 16:14:41;;;;;;;11.73;6.23;;;;;;;;;;10475367;28;20239;-70
2021/04/27 16:19:43;;;;;;;10.80;5.57;;;;;;;;;;10479857;28;20207;-70
2021/04/27 16:24:46;;;;;;;11.97;6.33;;;;;;;;;;10489424;28;20577;-70
2021/04/27 16:29:47;;;;;;;11.90;6.07;;;;;;;;;;10490274;28;20239;-71
2021/04/27 16:34:50;;;;;;;12.00;6.07;;;;;;;;;;10490434;28;20234;-68
2021/04/27 16:39:53;;;;;;;11.83;6.70;;;;;;;;;;10490095;28;20196;-70
2021/04/27 16:44:54;;;;;;;11.10;6.27;;;;;;;;;;10493047;28;20264;-71
2021/04/27 16:49:56;;;;;;;10.47;6.33;;;;;;;;;;10488302;28;20181;-71
2021/04/27 16:54:58;;;;;;;11.13;5.80;;;;;;;;;;10491625;28;20196;-70
2021/04/27 17:00:00;;;;;;;11.60;5.80;;;;;;;;;;10491030;28;20192;-70
2021/04/27 17:05:01;;;;;;;13.23;6.07;;;;;;;;;;10479667;28;20288;-70
2021/04/27 17:10:05;;;;;;;10.33;5.70;;;;;;;;;;10505842;28;20199;-71
2021/04/27 17:15:07;;;;;;;12.37;6.47;;;;;;;;;;10488366;28;20570;-71
2021/04/27 17:20:11;;;;;;;11.30;6.00;;;;;;;;;;10486306;28;20232;-71
2021/04/27 17:25:16;;;;;;;10.27;5.97;;;;;;;;;;10486070;28;20291;-69
2021/04/27 17:30:18;;;;;;;12.67;6.37;;;;;;;;;;10487622;28;20291;-72
2021/04/27 17:35:20;;;;;;;10.37;5.83;;;;;;;;;;10485569;28;20283;-70
2021/04/27 17:40:23;;;;;;;10.53;5.07;;;;;;;;;;10497285;28;20227;-72
2021/04/27 17:45:25;;;;;;;11.50;5.93;;;;;;;;;;10489504;28;20199;-70
2021/04/27 17:50:27;;;;;;;11.17;5.50;;;;;;;;;;10488308;28;20386;-71
2021/04/27 17:55:30;;;;;;;11.40;5.60;;;;;;;;;;10495104;28;20671;-72
2021/04/27 18:00:31;;;;;;;11.17;5.87;;;;;;;;;;10494289;28;20728;-72
2021/04/27 18:05:33;;;;;;;9.90;5.77;;;;;;;;;;10491526;28;20531;-72
2021/04/27 18:10:35;;;;;;;11.87;6.10;;;;;;;;;;10494914;28;20244;-72
2021/04/27 18:15:37;;;;;;;10.87;5.23;;;;;;;;;;10488644;28;20297;-72
2021/04/27 18:20:39;;;;;;;11.00;6.07;;;;;;;;;;10485517;28;20315;-71
2021/04/27 18:25:41;;;;;;;11.37;5.87;;;;;;;;;;10494172;28;20192;-73
2021/04/27 18:30:43;;;;;;;11.07;5.57;;;;;;;;;;10494244;28;20216;-73
2021/04/27 18:35:45;;;;;;;11.07;5.70;;;;;;;;;;10488471;28;20679;-73
2021/04/27 18:40:47;;;;;;;9.70;5.37;;;;;;;;;;10494886;28;20244;-73
2021/04/27 18:45:49;;;;;;;11.23;5.57;;;;;;;;;;10490248;28;20192;-72
2021/04/27 18:50:51;;;;;;;12.80;5.70;;;;;;;;;;10487984;28;20294;-73
2021/04/27 18:55:54;;;;;;;13.10;6.17;;;;;;;;;;10487414;28;20291;-72
2021/04/27 19:00:56;;;;;;;12.40;7.07;;;;;;;;;;10486540;28;20480;-74
2021/04/27 19:05:58;;;;;;;12.60;5.77;;;;;;;;;;10487788;28;20185;-74
2021/04/27 19:11:00;;;;;;;9.80;5.73;;;;;;;;;;10498158;28;20316;-74
2021/04/27 19:16:02;;;;;;;11.70;5.80;;;;;;;;;;10500856;28;20218;-73
2021/04/27 19:21:07;;;;;;;11.63;6.00;;;;;;;;;;10496495;28;20540;-74
2021/04/27 19:26:10;;;;;;;11.57;6.33;;;;;;;;;;10492471;28;20211;-73
2021/04/27 19:31:12;;;;;;;12.67;6.30;;;;;;;;;;10494964;28;20266;-72
2021/04/27 19:36:13;;;;;;;11.63;6.40;;;;;;;;;;10497703;28;20219;-74
2021/04/27 19:41:16;;;;;;;11.93;6.70;;;;;;;;;;10484854;28;20291;-72
2021/04/27 19:46:24;;;;;;;11.30;6.13;;;;;;;;;;10486747;28;20200;-73
2021/04/27 19:51:25;;;;;;;11.10;6.40;;;;;;;;;;10488000;28;20216;-73
2021/04/27 19:56:28;;;;;;;11.10;6.63;;;;;;;;;;10495445;28;20282;-72
2021/04/27 20:01:29;;;;;;;12.93;6.93;;;;;;;;;;10486770;28;20220;-73
2021/04/27 20:06:31;;;;;;;12.77;6.60;;;;;;;;;;10484256;28;20195;-73
2021/04/27 20:11:35;;;;;;;13.10;6.37;;;;;;;;;;10491039;28;20224;-71
2021/04/27 20:16:37;;;;;;;10.70;6.33;;;;;;;;;;10490761;28;20232;-74
2021/04/27 20:21:38;;;;;;;12.80;7.10;;;;;;;;;;10488182;28;20212;-73
2021/04/27 20:26:42;;;;;;;15.37;9.43;;;;;;;;;;10486806;28;20188;-73
2021/04/27 20:31:44;;;;;;;12.80;7.03;;;;;;;;;;10489248;28;20250;-74
2021/04/27 20:36:46;;;;;;;15.30;7.10;;;;;;;;;;10483515;28;20253;-73
2021/04/27 20:41:48;;;;;;;12.80;6.30;;;;;;;;;;10486012;28;20675;-72
2021/04/27 20:46:50;;;;;;;12.80;5.93;;;;;;;;;;10484813;28;20308;-71
2021/04/27 20:51:52;;;;;;;10.93;6.57;;;;;;;;;;10486653;28;20703;-71
2021/04/27 20:56:54;;;;;;;14.05;7.10;;;;;;;;;;10481898;28;20453;-72
2021/04/27 21:01:57;;;;;;;11.47;6.60;;;;;;;;;;10486247;28;20219;-73
2021/04/27 21:07:00;;;;;;;12.80;6.90;;;;;;;;;;10491257;28;20434;-73
2021/04/27 21:12:08;;;;;;;10.67;6.60;;;;;;;;;;10484417;28;20546;-71
2021/04/27 21:17:10;;;;;;;10.40;6.63;;;;;;;;;;10490006;28;20699;-73
2021/04/27 21:22:12;;;;;;;11.47;7.20;;;;;;;;;;10487428;28;20216;-71
2021/04/27 21:27:15;;;;;;;11.73;6.77;;;;;;;;;;10482954;28;20200;-72
2021/04/27 21:32:16;;;;;;;13.17;6.63;;;;;;;;;;10492457;28;20293;-72
2021/04/27 21:37:18;;;;;;;11.97;7.20;;;;;;;;;;10489488;28;20231;-72
2021/04/27 21:42:20;;;;;;;10.20;6.57;;;;;;;;;;10488640;28;20240;-72
2021/04/27 21:47:22;;;;;;;12.17;6.63;;;;;;;;;;10489760;28;20216;-72
2021/04/27 21:52:23;;;;;;;11.33;6.33;;;;;;;;;;10490890;28;20220;-73
2021/04/27 21:57:26;;;;;;;12.47;6.73;;;;;;;;;;10487612;28;20337;-73
2021/04/27 22:02:27;;;;;;;11.53;6.80;;;;;;;;;;10486723;28;20220;-73
2021/04/27 22:07:29;;;;;;;11.83;6.80;;;;;;;;;;10488275;28;20570;-72
2021/04/27 22:12:32;;;;;;;11.53;6.87;;;;;;;;;;10480025;28;20220;-73
2021/04/27 22:17:33;;;;;;;13.70;7.03;;;;;;;;;;10490934;28;20239;-73
2021/04/27 22:22:35;;;;;;;12.87;6.87;;;;;;;;;;10489034;28;20220;-73
2021/04/27 22:27:38;;;;;;;10.37;6.67;;;;;;;;;;10483367;28;20218;-72
2021/04/27 22:32:40;;;;;;;12.63;6.67;;;;;;;;;;10487466;28;20228;-73
2021/04/27 22:37:42;;;;;;;10.67;6.50;;;;;;;;;;10486269;28;20207;-73
2021/04/27 22:42:45;;;;;;;11.43;6.90;;;;;;;;;;10490215;28;20223;-73
2021/04/27 22:47:47;;;;;;;12.67;6.50;;;;;;;;;;10487654;28;20192;-74
2021/04/27 22:52:49;;;;;;;11.07;6.60;;;;;;;;;;10487047;28;20291;-74
2021/04/27 22:57:52;;;;;;;12.80;6.90;;;;;;;;;;10479488;28;20595;-74
2021/04/27 23:02:55;;;;;;;11.70;6.70;;;;;;;;;;10487774;28;20323;-75
2021/04/27 23:07:56;;;;;;;13.23;6.40;;;;;;;;;;10487382;28;20617;-74
2021/04/27 23:12:58;;;;;;;11.00;6.50;;;;;;;;;;10478487;28;20220;-73
2021/04/27 23:18:00;;;;;;;12.17;7.27;;;;;;;;;;10482282;28;20278;-74
2021/04/27 23:23:02;;;;;;;10.77;7.03;;;;;;;;;;10479095;28;20668;-74
2021/04/27 23:28:05;;;;;;;12.13;6.70;;;;;;;;;;10482291;28;20676;-73
2021/04/27 23:33:07;;;;;;;11.90;7.17;;;;;;;;;;10486650;28;20298;-73
2021/04/27 23:38:09;;;;;;;12.43;7.40;;;;;;;;;;10482474;28;20235;-73
2021/04/27 23:43:12;;;;;;;11.60;6.90;;;;;;;;;;10484498;28;20219;-73
2021/04/27 23:48:13;;;;;;;11.23;6.87;;;;;;;;;;10481511;28;20226;-72
2021/04/27 23:53:15;;;;;;;12.60;6.57;;;;;;;;;;10468560;28;20708;-72
2021/04/27 23:58:17;;;;;;;10.97;6.43;;;;;;;;;;10476168;28;20307;-72
